Time;durP1;ratioP1;P1;durP2;ratioP2;P2;SDS_P1;SDS_P2;PMS_P1;PMS_P2;Temp;Humidity;BMP_temperature;BMP_pressure;BME280_temperature;BME280_humidity;BME280_pressure;Samples;Min_cycle;Max_cycle;Signal;HPM_P1;HPM_P2
2022/07/21 00:00:18;;;;;;;7.55;6.72;;;;;;;24.33;48.93;100796.38;5020475;28;20064;-79
2022/07/21 00:02:46;;;;;;;9.45;7.18;;;;;;;24.28;48.07;100795.81;5014120;28;20067;-78
2022/07/21 00:05:13;;;;;;;8.95;7.10;;;;;;;24.33;48.25;100792.81;5030810;28;21707;-79
2022/07/21 00:07:40;;;;;;;9.00;6.65;;;;;;;24.19;49.76;100795.66;5029432;28;20096;-80
2022/07/21 00:10:07;;;;;;;7.70;6.88;;;;;;;24.02;49.79;100803.19;5018278;28;20029;-80
2022/07/21 00:12:34;;;;;;;13.40;7.93;;;;;;;23.90;50.88;100798.72;5040579;28;20124;-79
2022/07/21 00:15:02;;;;;;;11.30;7.97;;;;;;;23.94;50.62;100789.41;5049374;28;20045;-78
2022/07/21 00:17:29;;;;;;;9.77;7.55;;;;;;;24.00;51.53;100783.56;5012880;28;20090;-78
2022/07/21 00:19:56;;;;;;;8.30;7.43;;;;;;;23.84;51.34;100788.38;5020026;28;20037;-81
2022/07/21 00:22:23;;;;;;;8.35;6.82;;;;;;;23.69;51.72;100786.78;5037703;28;20047;-79
2022/07/21 00:24:49;;;;;;;8.07;7.15;;;;;;;23.62;52.64;100791.75;5026251;28;20037;-78
2022/07/21 00:27:17;;;;;;;8.43;7.63;;;;;;;23.51;54.35;100787.13;5048237;28;20051;-79
2022/07/21 00:29:44;;;;;;;8.43;7.45;;;;;;;23.38;53.44;100785.44;5001778;28;20067;-79
2022/07/21 00:32:11;;;;;;;8.85;7.25;;;;;;;23.32;53.26;100786.72;5037854;28;20037;-80
2022/07/21 00:34:40;;;;;;;7.65;6.85;;;;;;;23.14;53.87;100785.34;5063988;23;20049;-81
2022/07/21 00:37:07;;;;;;;9.60;7.53;;;;;;;23.12;52.78;100773.78;4997367;28;20087;-81
2022/07/21 00:39:35;;;;;;;8.70;7.50;;;;;;;23.06;54.18;100777.81;5000132;28;20140;-81
2022/07/21 00:42:03;;;;;;;8.48;7.15;;;;;;;22.94;55.04;100781.34;5043561;28;20033;-80
2022/07/21 00:44:30;;;;;;;9.55;6.90;;;;;;;22.92;54.61;100780.59;5029735;28;20041;-79
2022/07/21 00:46:57;;;;;;;10.50;7.22;;;;;;;22.85;56.65;100768.53;5050532;28;20041;-78
2022/07/21 00:49:25;;;;;;;12.65;8.13;;;;;;;22.85;57.41;100768.53;5047217;28;20088;-79
2022/07/21 00:51:51;;;;;;;7.93;6.97;;;;;;;22.70;57.64;100767.72;5011204;28;20041;-79
2022/07/21 00:54:18;;;;;;;7.18;6.47;;;;;;;22.60;57.23;100763.94;5033660;28;20056;-80
2022/07/21 00:56:46;;;;;;;8.20;6.93;;;;;;;22.54;57.24;100753.63;5028571;28;20112;-79
2022/07/21 00:59:13;;;;;;;9.40;6.90;;;;;;;22.50;57.19;100757.47;5020136;28;20108;-79
2022/07/21 01:01:39;;;;;;;8.07;7.25;;;;;;;22.48;57.90;100755.75;5008705;28;20041;-80
2022/07/21 01:04:06;;;;;;;8.38;7.50;;;;;;;22.39;59.08;100760.91;5040216;28;20034;-79
2022/07/21 01:06:33;;;;;;;8.85;6.75;;;;;;;22.31;58.97;100756.03;5010354;28;20047;-79
2022/07/21 01:08:59;;;;;;;9.45;7.43;;;;;;;22.28;58.39;100750.88;5026421;28;20041;-80
2022/07/21 01:11:30;;;;;;;7.85;6.75;;;;;;;22.18;59.62;100744.38;5027377;28;20045;-80
2022/07/21 01:13:57;;;;;;;8.00;7.18;;;;;;;22.10;58.42;100734.13;5008119;28;20080;-80
2022/07/21 01:16:24;;;;;;;8.00;7.07;;;;;;;22.09;59.75;100736.91;5009641;28;20045;-80
2022/07/21 01:18:51;;;;;;;8.68;6.88;;;;;;;22.00;59.73;100732.97;5028984;28;20056;-79
2022/07/21 01:21:32;;;;;;;7.60;6.60;;;;;;;21.90;59.29;100737.25;5028169;28;20045;-80
2022/07/21 01:24:00;;;;;;;12.32;7.80;;;;;;;21.89;60.58;100733.72;5011290;28;20037;-80
2022/07/21 01:26:26;;;;;;;10.05;7.28;;;;;;;21.86;60.22;100731.25;5032772;28;20053;-80
2022/07/21 01:28:53;;;;;;;8.27;7.43;;;;;;;21.81;60.34;100727.97;5023291;28;20045;-80
2022/07/21 01:31:21;;;;;;;10.20;7.35;;;;;;;21.80;61.12;100733.47;5028281;28;20041;-79
2022/07/21 01:33:48;;;;;;;10.27;7.50;;;;;;;21.78;60.12;100732.72;5045243;28;20103;-80
2022/07/21 01:36:16;;;;;;;8.73;6.97;;;;;;;21.71;60.00;100726.88;5020143;28;20047;-80
2022/07/21 01:41:32;;;;;;;8.80;7.05;;;;;;;21.62;59.79;100739.09;5017613;28;20628;-79
2022/07/21 01:44:05;;;;;;;10.02;7.57;;;;;;;21.57;60.98;100741.19;5028656;28;20041;-80
2022/07/21 01:46:37;;;;;;;11.20;7.70;;;;;;;21.68;61.58;100739.63;5037271;28;20049;-80
2022/07/21 01:49:05;;;;;;;8.70;7.00;;;;;;;21.55;61.45;100745.81;5033241;28;20045;-80
2022/07/21 01:51:31;;;;;;;7.70;6.93;;;;;;;21.50;61.70;100745.25;5035773;28;20065;-80
2022/07/21 01:53:59;;;;;;;8.73;7.00;;;;;;;21.44;62.11;100744.75;5026137;28;20044;-80
2022/07/21 01:56:26;;;;;;;7.22;6.53;;;;;;;21.40;62.66;100744.13;5008282;28;20247;-81
2022/07/21 01:58:54;;;;;;;7.35;6.63;;;;;;;21.34;63.05;100749.88;5013170;28;20067;-79
2022/07/21 02:01:24;;;;;;;7.82;6.93;;;;;;;21.31;63.80;100742.00;5030454;28;20054;-80
2022/07/21 02:03:50;;;;;;;52.97;13.40;;;;;;;21.27;64.08;100744.03;5029874;28;20068;-80
2022/07/21 02:06:17;;;;;;;120.63;25.13;;;;;;;21.30;65.14;100738.47;5053821;28;20049;-79
2022/07/21 02:08:44;;;;;;;85.93;19.38;;;;;;;21.21;65.78;100728.28;5032015;28;20402;-80
2022/07/21 02:11:12;;;;;;;34.22;12.10;;;;;;;21.29;64.87;100720.63;5053306;28;20029;-79
2022/07/21 02:13:39;;;;;;;31.33;11.32;;;;;;;21.15;65.38;100723.28;5038769;28;20105;-78
2022/07/21 02:16:07;;;;;;;27.13;10.93;;;;;;;21.17;64.57;100724.03;5020524;28;20048;-80
2022/07/21 02:18:34;;;;;;;23.95;10.00;;;;;;;21.12;65.34;100717.25;5031890;28;20109;-79
2022/07/21 02:21:01;;;;;;;22.80;10.15;;;;;;;21.15;65.61;100711.69;5013570;28;20061;-81
2022/07/21 02:23:28;;;;;;;19.48;10.73;;;;;;;21.14;65.68;100707.25;5040707;28;20073;-79
2022/07/21 02:25:56;;;;;;;14.02;8.65;;;;;;;21.09;65.19;100716.47;5004455;28;20038;-79
2022/07/21 02:28:24;;;;;;;17.00;9.27;;;;;;;21.21;64.14;100716.66;5004210;28;20057;-78
2022/07/21 02:30:51;;;;;;;11.63;7.90;;;;;;;21.16;64.64;100713.41;5003782;28;20104;-79
2022/07/21 02:33:18;;;;;;;11.15;8.05;;;;;;;21.13;64.89;100701.03;5011297;28;20128;-78
2022/07/21 02:35:47;;;;;;;10.48;7.88;;;;;;;21.14;64.04;100694.69;5012323;28;20038;-78
2022/07/21 02:38:14;;;;;;;10.35;8.07;;;;;;;21.15;65.44;100692.88;5004464;28;20045;-79
2022/07/21 02:40:41;;;;;;;13.55;8.90;;;;;;;21.27;64.95;100686.72;5026367;28;20025;-78
2022/07/21 02:43:07;;;;;;;11.23;8.05;;;;;;;21.16;64.25;100695.44;4987492;28;20041;-79
2022/07/21 02:45:36;;;;;;;13.43;8.18;;;;;;;21.18;63.28;100690.84;5006676;28;20038;-79
2022/07/21 02:48:09;;;;;;;9.65;8.18;;;;;;;21.15;63.18;100684.81;4999213;28;20068;-78
2022/07/21 02:50:38;;;;;;;8.95;7.00;;;;;;;21.16;61.82;100692.75;5011820;28;20037;-78
2022/07/21 02:53:07;;;;;;;9.70;8.40;;;;;;;21.30;62.60;100692.78;5005398;28;20045;-78
2022/07/21 02:55:34;;;;;;;9.98;7.53;;;;;;;21.29;61.14;100682.13;5014108;28;20037;-77
2022/07/21 02:58:21;;;;;;;12.18;8.15;;;;;;;21.35;58.96;100685.25;4981854;28;20048;-79
2022/07/21 03:00:49;;;;;;;9.05;7.53;;;;;;;21.45;58.44;100685.56;5016439;23;20044;-78
2022/07/21 03:03:17;;;;;;;9.63;7.65;;;;;;;21.65;57.95;100689.63;4992469;28;20096;-79
2022/07/21 03:05:43;;;;;;;7.93;6.80;;;;;;;21.63;58.31;100696.94;5000591;28;20100;-79
2022/07/21 03:08:11;;;;;;;9.30;6.88;;;;;;;21.62;57.77;100695.22;5010363;28;20045;-78
2022/07/21 03:10:38;;;;;;;8.85;7.65;;;;;;;21.63;57.84;100696.94;5011212;28;20594;-78
2022/07/21 03:13:05;;;;;;;10.75;8.02;;;;;;;21.69;58.54;100701.88;5010924;28;20286;-79
2022/07/21 03:15:32;;;;;;;10.00;7.85;;;;;;;21.67;58.58;100695.75;5006693;28;20517;-79
2022/07/21 03:17:59;;;;;;;70.55;18.27;;;;;;;21.70;58.00;100692.88;5026862;28;20049;-80
2022/07/21 03:20:27;;;;;;;53.25;12.48;;;;;;;21.77;56.79;100701.38;5013624;28;20050;-78
2022/07/21 03:22:54;;;;;;;28.55;10.38;;;;;;;21.80;56.36;100698.50;4994296;28;20457;-79
2022/07/21 03:25:21;;;;;;;33.75;11.43;;;;;;;21.83;56.64;100699.13;5008304;28;20048;-80
2022/07/21 03:27:48;;;;;;;35.55;11.10;;;;;;;21.85;57.27;100682.91;5014236;28;20041;-78
2022/07/21 03:30:15;;;;;;;11.48;7.45;;;;;;;21.91;55.97;100696.81;5057497;28;20036;-80
2022/07/21 03:32:42;;;;;;;11.43;7.43;;;;;;;21.88;56.74;100688.94;4996707;28;20048;-78
2022/07/21 03:35:12;;;;;;;9.48;7.50;;;;;;;21.94;56.43;100695.72;5015633;28;20071;-80
2022/07/21 03:37:45;;;;;;;9.18;7.18;;;;;;;21.96;56.37;100688.44;5035603;28;20044;-79
2022/07/21 03:40:13;;;;;;;8.32;7.00;;;;;;;22.03;55.31;100678.09;5012350;28;20029;-80
2022/07/21 03:42:40;;;;;;;10.63;7.97;;;;;;;22.21;55.38;100687.66;5008867;28;20045;-78
2022/07/21 03:45:07;;;;;;;8.73;6.80;;;;;;;22.27;54.08;100681.84;4995236;28;20041;-80
2022/07/21 03:47:34;;;;;;;7.80;6.78;;;;;;;22.37;54.21;100680.25;5031404;28;20103;-78
2022/07/21 03:50:02;;;;;;;10.25;6.90;;;;;;;22.44;55.42;100678.84;5015810;28;20038;-79
2022/07/21 03:52:29;;;;;;;10.27;7.15;;;;;;;22.52;54.07;100672.06;5000761;28;20108;-78
2022/07/21 03:55:18;;;;;;;8.82;6.72;;;;;;;22.52;54.64;100674.75;5014951;28;20046;-79
2022/07/21 03:57:46;;;;;;;8.32;7.28;;;;;;;22.60;53.75;100678.63;5030061;28;20051;-79
2022/07/21 04:00:16;;;;;;;14.55;7.68;;;;;;;22.70;54.03;100670.75;5010628;28;20502;-81
2022/07/21 04:02:44;;;;;;;11.57;7.75;;;;;;;22.66;53.79;100667.44;4994218;28;20096;-80
2022/07/21 04:05:12;;;;;;;8.60;7.72;;;;;;;22.72;53.68;100669.72;5013585;28;20049;-79
2022/07/21 04:07:40;;;;;;;10.07;7.57;;;;;;;22.83;53.93;100674.31;5026906;28;20049;-78
2022/07/21 04:10:12;;;;;;;8.50;6.65;;;;;;;22.76;54.85;100673.03;4997120;28;20046;-78
2022/07/21 04:12:39;;;;;;;8.77;6.70;;;;;;;22.75;54.30;100669.47;5031361;28;20037;-78
2022/07/21 04:15:07;;;;;;;10.02;7.30;;;;;;;22.75;55.65;100664.09;5011901;28;20034;-79
2022/07/21 04:17:34;;;;;;;8.60;6.70;;;;;;;22.80;53.83;100671.00;5006534;28;20132;-78
2022/07/21 04:20:02;;;;;;;9.02;7.05;;;;;;;22.87;52.50;100692.03;5024559;28;20032;-78
2022/07/21 04:22:29;;;;;;;8.65;6.93;;;;;;;22.89;52.55;100694.63;5009192;28;20597;-79
2022/07/21 04:24:56;;;;;;;9.45;7.28;;;;;;;22.93;53.09;100698.81;5002672;28;20418;-80
2022/07/21 04:27:23;;;;;;;9.57;7.43;;;;;;;22.95;54.74;100702.25;5029616;28;20105;-79
2022/07/21 04:29:49;;;;;;;8.80;7.03;;;;;;;22.91;54.35;100696.22;5002045;28;20087;-80
2022/07/21 04:32:16;;;;;;;7.70;6.68;;;;;;;22.90;54.62;100699.03;5005150;28;20041;-79
2022/07/21 04:34:43;;;;;;;8.20;7.07;;;;;;;22.97;54.56;100697.63;5007694;28;20048;-79
2022/07/21 04:37:09;;;;;;;8.15;7.22;;;;;;;22.96;55.23;100701.28;5021955;28;20136;-77
2022/07/21 04:39:36;;;;;;;8.15;6.35;;;;;;;22.97;55.35;100703.00;5009198;28;20043;-79
2022/07/21 04:42:03;;;;;;;9.13;7.32;;;;;;;23.00;54.96;100695.56;5026696;28;20558;-80
2022/07/21 04:44:30;;;;;;;9.38;7.75;;;;;;;23.05;54.12;100697.94;5028763;28;20079;-79
2022/07/21 04:46:57;;;;;;;13.48;8.65;;;;;;;23.08;55.24;100692.31;4988971;28;20043;-80
2022/07/21 04:49:24;;;;;;;9.90;7.88;;;;;;;23.20;54.14;100690.56;5030052;28;20045;-79
2022/07/21 04:51:51;;;;;;;10.80;8.05;;;;;;;23.18;54.64;100706.00;5020464;28;20034;-80
2022/07/21 04:54:17;;;;;;;8.57;7.20;;;;;;;23.16;53.79;100714.19;5026812;28;20041;-80
2022/07/21 04:56:44;;;;;;;7.90;7.10;;;;;;;23.28;53.70;100712.44;5007946;28;20041;-79
2022/07/21 04:59:11;;;;;;;11.30;7.32;;;;;;;23.31;52.78;100715.78;5022601;28;20038;-79
2022/07/21 05:01:39;;;;;;;9.05;6.97;;;;;;;23.32;53.03;100713.94;5011976;28;20088;-80
2022/07/21 05:04:06;;;;;;;8.05;6.47;;;;;;;23.31;52.33;100707.69;5019957;28;20037;-81
2022/07/21 05:06:33;;;;;;;8.73;7.28;;;;;;;23.41;53.23;100713.28;5028120;28;20045;-79
2022/07/21 05:09:00;;;;;;;9.95;7.07;;;;;;;23.53;52.14;100706.09;4991326;28;20043;-80
2022/07/21 05:11:26;;;;;;;9.45;7.85;;;;;;;23.62;52.29;100712.69;5030542;28;20041;-79
2022/07/21 05:13:53;;;;;;;8.77;7.05;;;;;;;23.75;52.22;100705.41;4998559;28;20041;-80
2022/07/21 05:16:20;;;;;;;8.15;6.97;;;;;;;24.02;50.68;100703.31;5030513;28;20505;-83
2022/07/21 05:18:47;;;;;;;7.40;6.43;;;;;;;24.14;50.63;100715.91;5016726;28;20033;-82
2022/07/21 05:21:14;;;;;;;8.75;6.88;;;;;;;24.23;50.62;100726.97;5018094;28;20038;-82
2022/07/21 05:23:40;;;;;;;7.60;6.53;;;;;;;24.31;50.61;100719.16;5032524;28;20044;-82
2022/07/21 05:26:07;;;;;;;14.90;7.90;;;;;;;24.45;50.22;100721.66;5012674;28;20041;-80
2022/07/21 05:28:34;;;;;;;10.98;7.47;;;;;;;24.69;50.38;100725.16;5013198;28;20042;-82
2022/07/21 05:31:00;;;;;;;8.55;6.97;;;;;;;24.96;49.79;100724.81;5009990;28;20056;-82
2022/07/21 05:33:27;;;;;;;7.93;6.82;;;;;;;25.21;49.13;100728.28;5033350;28;20383;-80
2022/07/21 05:35:54;;;;;;;8.63;7.15;;;;;;;25.44;47.75;100730.00;5013325;28;20131;-84
2022/07/21 05:38:20;;;;;;;8.10;7.18;;;;;;;25.74;46.75;100732.06;5015803;28;20049;-83
2022/07/21 05:40:53;;;;;;;8.40;7.43;;;;;;;25.77;47.43;100729.09;5031854;28;20410;-83
2022/07/21 05:43:20;;;;;;;9.88;7.15;;;;;;;26.20;46.58;100730.91;5010678;28;20059;-82
2022/07/21 05:45:47;;;;;;;10.50;7.60;;;;;;;26.50;46.47;100721.19;5037936;28;20033;-82
2022/07/21 05:48:14;;;;;;;137.70;25.52;;;;;;;27.37;43.66;100722.50;5015460;28;20046;-79
2022/07/21 05:50:41;;;;;;;28.05;10.88;;;;;;;28.18;41.81;100716.94;5027795;28;20045;-79
2022/07/21 05:53:07;;;;;;;10.15;6.90;;;;;;;28.25;40.46;100708.06;5029660;28;20056;-80
2022/07/21 05:55:34;;;;;;;7.93;7.00;;;;;;;28.37;40.64;100735.13;5039310;28;20387;-81
2022/07/21 05:58:01;;;;;;;8.90;7.28;;;;;;;28.12;40.83;100731.94;5007458;28;20124;-81
2022/07/21 06:00:35;;;;;;;9.63;7.15;;;;;;;28.61;40.69;100735.53;5031403;28;20038;-80
2022/07/21 06:03:02;;;;;;;8.15;7.18;;;;;;;29.16;39.64;100736.50;5008690;28;20125;-81
2022/07/21 06:05:34;;;;;;;7.97;6.25;;;;;;;29.27;39.23;100727.31;5009401;28;20679;-80
2022/07/21 06:08:01;;;;;;;9.95;7.05;;;;;;;29.90;37.91;100738.28;5030108;28;20044;-80
2022/07/21 06:10:29;;;;;;;7.38;6.60;;;;;;;30.50;36.77;100749.41;5013470;28;20047;-80
2022/07/21 06:12:56;;;;;;;19.70;7.88;;;;;;;30.99;35.33;100743.47;5030227;28;20091;-80
2022/07/21 06:15:22;;;;;;;11.25;7.88;;;;;;;31.19;35.39;100735.91;4999007;28;20045;-80
2022/07/21 06:17:49;;;;;;;7.55;6.75;;;;;;;31.13;35.61;100755.69;5028351;28;20060;-79
2022/07/21 06:20:16;;;;;;;8.10;7.35;;;;;;;30.90;36.36;100748.03;5023598;28;20502;-82
2022/07/21 06:22:42;;;;;;;9.35;7.43;;;;;;;30.54;36.72;100767.19;5013697;28;20060;-80
2022/07/21 06:25:09;;;;;;;10.65;7.82;;;;;;;30.16;36.75;100771.09;5027694;28;20513;-79
2022/07/21 06:27:36;;;;;;;10.27;8.23;;;;;;;29.75;38.21;100775.22;5000653;28;20127;-79
2022/07/21 06:30:05;;;;;;;8.80;7.68;;;;;;;29.41;38.84;100769.50;4997335;28;20049;-81
2022/07/21 06:32:31;;;;;;;11.13;8.48;;;;;;;29.14;39.24;100787.50;5000194;28;20091;-80
2022/07/21 06:34:58;;;;;;;10.27;9.20;;;;;;;29.19;40.75;100780.78;5027027;28;20064;-80
2022/07/21 06:37:25;;;;;;;10.95;9.27;;;;;;;28.81;41.60;100782.53;5024208;28;20177;-81
2022/07/21 06:39:51;;;;;;;12.70;11.38;;;;;;;28.91;41.88;100793.44;5009349;28;20045;-79
2022/07/21 06:42:18;;;;;;;14.30;11.82;;;;;;;28.68;42.92;100795.59;5031108;28;20383;-83
2022/07/21 06:44:44;;;;;;;16.95;14.48;;;;;;;28.38;44.57;100800.19;5013452;28;20453;-83
2022/07/21 06:47:18;;;;;;;19.95;14.68;;;;;;;28.22;45.07;100798.00;5021522;28;20482;-81
2022/07/21 06:49:45;;;;;;;16.90;14.52;;;;;;;28.13;45.90;100800.72;5019387;28;20049;-80
2022/07/21 06:52:12;;;;;;;15.90;14.40;;;;;;;28.43;46.54;100802.50;5009406;28;20505;-81
2022/07/21 06:54:39;;;;;;;17.88;16.13;;;;;;;28.58;46.36;100801.03;5009192;28;20052;-81
2022/07/21 06:57:06;;;;;;;19.65;17.48;;;;;;;28.60;46.68;100794.47;5016191;28;20034;-81
2022/07/21 06:59:33;;;;;;;18.15;16.25;;;;;;;28.28;47.61;100783.84;5001206;28;20049;-80
2022/07/21 07:02:00;;;;;;;19.17;17.17;;;;;;;28.37;48.09;100798.47;5050937;28;20033;-80
2022/07/21 07:04:27;;;;;;;19.25;16.95;;;;;;;28.31;47.90;100802.59;5010122;28;20049;-82
2022/07/21 07:06:55;;;;;;;21.25;18.38;;;;;;;28.22;48.49;100813.44;4995587;28;20060;-80
2022/07/21 07:09:23;;;;;;;22.42;17.58;;;;;;;28.29;49.19;100806.47;5008603;28;20110;-81
2022/07/21 07:11:52;;;;;;;19.85;17.42;;;;;;;28.52;48.36;100810.63;5022017;28;20042;-81
2022/07/21 07:14:38;;;;;;;53.58;22.30;;;;;;;29.00;47.39;100806.16;4997264;28;20167;-80
2022/07/21 07:17:05;;;;;;;20.10;18.15;;;;;;;29.18;46.71;100809.84;5016651;28;20038;-81
2022/07/21 07:19:32;;;;;;;20.63;18.42;;;;;;;29.08;47.30;100815.28;4994850;28;20045;-81
2022/07/21 07:21:59;;;;;;;21.88;18.23;;;;;;;29.25;46.61;100812.81;5010288;28;20034;-81
2022/07/21 07:24:25;;;;;;;21.35;18.75;;;;;;;29.14;47.33;100811.13;5011856;28;20060;-81
2022/07/21 07:26:52;;;;;;;22.42;20.13;;;;;;;28.95;48.26;100803.03;5023283;28;20049;-81
2022/07/21 07:29:19;;;;;;;20.85;18.65;;;;;;;28.82;48.43;100814.16;5026979;28;20037;-79
2022/07/21 07:31:46;;;;;;;22.77;19.80;;;;;;;28.58;49.09;100810.03;5018315;28;20030;-80
2022/07/21 07:34:13;;;;;;;21.55;19.27;;;;;;;28.89;48.91;100804.44;5014392;28;20413;-83
2022/07/21 07:36:40;;;;;;;20.88;18.73;;;;;;;28.96;49.13;100811.03;5032842;28;20052;-83
2022/07/21 07:39:10;;;;;;;20.95;18.58;;;;;;;28.97;49.31;100820.06;4999622;28;20037;-83
2022/07/21 07:41:38;;;;;;;21.50;18.73;;;;;;;29.22;48.20;100832.16;5015244;28;20030;-83
2022/07/21 07:44:04;;;;;;;21.27;19.00;;;;;;;29.51;48.14;100837.53;5009227;28;20654;-80
2022/07/21 07:46:31;;;;;;;22.02;19.75;;;;;;;29.76;47.47;100831.38;5032293;28;20487;-81
2022/07/21 07:48:59;;;;;;;22.73;20.27;;;;;;;30.09;47.49;100834.53;5011156;28;20168;-82
2022/07/21 07:51:35;;;;;;;22.17;19.15;;;;;;;30.25;47.73;100829.25;5000607;28;20044;-81
2022/07/21 07:54:03;;;;;;;21.48;19.20;;;;;;;29.86;47.29;100845.84;5027759;28;20040;-82
2022/07/21 07:56:30;;;;;;;22.67;20.27;;;;;;;29.98;47.69;100844.59;4988209;28;20055;-80
2022/07/21 07:58:57;;;;;;;21.25;19.00;;;;;;;29.92;47.86;100841.63;4999299;28;20125;-81
2022/07/21 08:01:24;;;;;;;20.77;18.67;;;;;;;29.74;46.90;100840.72;5019948;28;20128;-79
2022/07/21 08:03:51;;;;;;;20.25;18.33;;;;;;;29.67;47.92;100851.34;5000292;28;20049;-83
2022/07/21 08:06:18;;;;;;;23.23;18.15;;;;;;;29.81;47.57;100844.56;5031951;28;20048;-81
2022/07/21 08:08:45;;;;;;;20.40;18.27;;;;;;;29.43;48.60;100847.28;5016724;28;20045;-82
2022/07/21 08:11:13;;;;;;;21.67;18.95;;;;;;;29.65;47.77;100856.97;5029504;28;20033;-80
2022/07/21 08:13:39;;;;;;;21.15;18.92;;;;;;;29.90;46.91;100857.28;4986756;28;20128;-82
2022/07/21 08:16:07;;;;;;;26.98;18.83;;;;;;;30.20;46.89;100858.88;5022765;28;20049;-81
2022/07/21 08:18:34;;;;;;;19.80;17.90;;;;;;;30.07;46.50;100864.63;5026157;28;20046;-80
2022/07/21 08:21:01;;;;;;;18.98;17.08;;;;;;;30.05;46.61;100863.94;5031675;28;20037;-81
2022/07/21 08:23:28;;;;;;;20.70;18.45;;;;;;;29.70;46.69;100867.41;4993819;28;20442;-81
2022/07/21 08:25:55;;;;;;;21.65;17.63;;;;;;;29.55;47.59;100872.47;5011019;28;20110;-81
2022/07/21 08:28:22;;;;;;;20.48;16.67;;;;;;;29.75;46.98;100869.66;5029788;28;20045;-81
2022/07/21 08:30:49;;;;;;;18.42;16.40;;;;;;;30.00;46.60;100868.97;5025762;28;20040;-82
2022/07/21 08:33:16;;;;;;;41.90;20.35;;;;;;;30.13;46.65;100882.28;5009080;28;20414;-81
2022/07/21 08:35:43;;;;;;;21.92;17.85;;;;;;;29.91;46.46;100878.91;5010376;28;20048;-81
2022/07/21 08:38:13;;;;;;;21.60;17.25;;;;;;;29.94;46.58;100875.91;4995185;28;20169;-82
2022/07/21 08:40:43;;;;;;;20.45;16.63;;;;;;;30.35;46.28;100889.16;5010498;28;20041;-82
2022/07/21 08:43:12;;;;;;;20.13;16.80;;;;;;;30.67;45.25;100888.66;5010379;28;20057;-81
2022/07/21 08:45:41;;;;;;;19.27;17.20;;;;;;;30.73;44.71;100902.53;5012218;28;20049;-82
2022/07/21 08:48:08;;;;;;;18.95;15.80;;;;;;;30.69;44.41;100898.44;5004188;28;20504;-80
2022/07/21 08:50:38;;;;;;;18.75;16.95;;;;;;;30.86;44.68;100898.53;5018593;28;20157;-82
2022/07/21 08:53:05;;;;;;;19.88;16.55;;;;;;;30.52;44.99;100893.75;5041461;28;20112;-82
2022/07/21 08:55:33;;;;;;;20.20;17.15;;;;;;;30.32;44.83;100901.22;4993672;28;20041;-80
2022/07/21 08:58:01;;;;;;;18.75;16.65;;;;;;;29.78;46.14;100905.66;5021472;28;20067;-81
2022/07/21 09:00:37;;;;;;;19.08;17.17;;;;;;;29.52;46.88;100900.03;4989351;28;20567;-81
2022/07/21 09:03:21;;;;;;;18.40;16.45;;;;;;;29.50;47.61;100896.56;5114345;23;20042;-83
2022/07/21 09:06:12;;;;;;;72.68;24.02;;;;;;;29.73;47.00;100891.63;4998775;28;20056;-83
2022/07/21 09:08:44;;;;;;;18.35;15.95;;;;;;;30.10;45.64;100894.34;4987698;28;20041;-85
2022/07/21 09:11:23;;;;;;;18.35;16.05;;;;;;;30.37;44.63;100884.44;5009241;28;20057;-82
2022/07/21 09:14:11;;;;;;;19.85;15.52;;;;;;;30.94;43.67;100906.81;4995969;28;20068;-81
2022/07/21 09:16:40;;;;;;;109.50;25.90;;;;;;;31.02;42.82;100904.16;4989514;28;20101;-83
2022/07/21 09:19:25;;;;;;;16.50;14.77;;;;;;;31.15;43.27;100907.34;5002950;28;20417;-82
2022/07/21 09:21:55;;;;;;;18.10;15.77;;;;;;;30.78;43.27;100913.00;5003832;28;20102;-84
2022/07/21 09:24:26;;;;;;;16.33;14.63;;;;;;;30.73;43.20;100913.44;5004529;28;20760;-82
2022/07/21 09:26:59;;;;;;;17.55;15.73;;;;;;;30.83;43.88;100907.91;5005782;28;20139;-83
2022/07/21 09:29:26;;;;;;;17.15;15.43;;;;;;;31.02;42.71;100901.41;5009831;28;20315;-83
2022/07/21 09:31:53;;;;;;;17.45;14.75;;;;;;;31.29;42.48;100909.53;4985036;28;20040;-84
2022/07/21 09:34:20;;;;;;;16.77;15.02;;;;;;;31.20;42.83;100899.53;4995284;28;20041;-83
2022/07/21 09:36:58;;;;;;;15.15;13.68;;;;;;;31.23;41.65;100898.38;5005486;28;20052;-84
2022/07/21 09:40:04;;;;;;;15.27;13.63;;;;;;;31.09;41.70;100911.53;4985383;28;20068;-82
2022/07/21 09:42:59;;;;;;;14.63;13.23;;;;;;;31.41;41.07;100903.78;5008734;28;20033;-84
2022/07/21 09:45:26;;;;;;;15.98;13.25;;;;;;;31.59;39.86;100904.59;5010057;28;20519;-82
2022/07/21 09:47:53;;;;;;;13.82;12.05;;;;;;;31.19;41.24;100914.19;4991199;28;20044;-84
2022/07/21 09:50:21;;;;;;;14.35;12.32;;;;;;;31.06;40.51;100914.59;5004835;28;20132;-83
2022/07/21 09:52:55;;;;;;;14.13;12.73;;;;;;;31.07;40.62;100915.47;5002026;28;20565;-83
2022/07/21 09:55:22;;;;;;;14.43;12.93;;;;;;;31.18;41.41;100922.53;5000551;28;20042;-83
2022/07/21 09:57:49;;;;;;;14.25;12.77;;;;;;;31.28;40.96;100918.75;5005176;28;20757;-82
2022/07/21 10:00:20;;;;;;;15.43;11.93;;;;;;;31.73;40.12;100920.38;4997324;28;20045;-82
2022/07/21 10:02:50;;;;;;;14.77;13.15;;;;;;;31.41;40.13;100928.38;5038219;28;20581;-82
2022/07/21 10:05:21;;;;;;;15.23;12.25;;;;;;;31.53;40.10;100930.69;5016242;28;20722;-83
2022/07/21 10:07:55;;;;;;;13.35;12.10;;;;;;;31.65;39.70;100923.91;4997699;28;20669;-83
2022/07/21 10:10:22;;;;;;;13.52;12.18;;;;;;;31.53;39.66;100925.22;4985855;28;20060;-83
2022/07/21 10:13:09;;;;;;;13.05;11.60;;;;;;;31.33;39.66;100921.84;4981580;28;20450;-84
2022/07/21 10:15:36;;;;;;;14.55;11.98;;;;;;;31.79;38.65;100921.66;5021198;28;20048;-83
2022/07/21 10:18:03;;;;;;;20.60;12.10;;;;;;;32.07;38.67;100920.41;5012809;28;20087;-84
2022/07/21 10:20:34;;;;;;;14.43;12.05;;;;;;;32.22;37.09;100928.84;4997588;28;20051;-84
2022/07/21 10:23:12;;;;;;;13.23;12.02;;;;;;;32.34;37.23;100933.00;5005485;28;20045;-84
2022/07/21 10:25:46;;;;;;;16.27;12.98;;;;;;;32.52;36.81;100926.56;4994640;28;20117;-81
2022/07/21 10:28:23;;;;;;;13.68;12.38;;;;;;;32.83;36.89;100924.91;4985644;28;20076;-84
2022/07/21 10:30:55;;;;;;;14.93;13.45;;;;;;;32.96;36.58;100929.88;5010765;28;20050;-82
2022/07/21 10:33:44;;;;;;;14.50;12.82;;;;;;;33.14;35.59;100924.28;4999220;28;20041;-81
2022/07/21 10:36:34;;;;;;;12.40;11.20;;;;;;;33.07;36.43;100940.53;5020560;28;20045;-83
2022/07/21 10:39:07;;;;;;;13.88;12.57;;;;;;;33.35;35.91;100938.28;4983577;28;20068;-83
2022/07/21 10:42:08;;;;;;;16.73;15.10;;;;;;;33.12;35.95;100940.84;5014961;28;20041;-80
2022/07/21 10:44:38;;;;;;;10.75;9.75;;;;;;;33.34;34.72;100950.25;5003734;28;20041;-83
2022/07/21 10:47:11;;;;;;;10.48;9.38;;;;;;;33.01;34.49;100953.00;4990794;28;20072;-83
2022/07/21 10:49:44;;;;;;;12.25;9.13;;;;;;;32.42;35.60;100952.19;4972613;28;20041;-83
2022/07/21 10:52:41;;;;;;;35.10;12.93;;;;;;;32.10;36.56;100960.22;5011425;28;20034;-81
2022/07/21 10:55:11;;;;;;;10.65;9.05;;;;;;;31.98;36.42;100967.00;5010466;28;20041;-82
2022/07/21 10:57:45;;;;;;;11.18;10.00;;;;;;;31.13;37.94;100971.28;5031175;28;20041;-83
2022/07/21 11:00:15;;;;;;;11.60;9.38;;;;;;;31.04;39.33;100975.81;4990185;28;20405;-80
2022/07/21 11:02:42;;;;;;;9.85;8.85;;;;;;;31.17;39.27;100973.53;4996862;28;20037;-81
2022/07/21 11:05:09;;;;;;;10.43;9.35;;;;;;;31.19;38.91;100967.91;5006976;28;20041;-83
2022/07/21 11:08:12;;;;;;;10.07;9.18;;;;;;;30.90;38.80;100974.47;4981846;28;20462;-83
2022/07/21 11:10:51;;;;;;;9.40;8.02;;;;;;;30.85;38.53;100973.22;5016200;28;20026;-83
2022/07/21 11:13:22;;;;;;;12.63;8.65;;;;;;;31.25;37.79;100970.91;5014380;28;20041;-81
2022/07/21 11:15:59;;;;;;;9.25;8.40;;;;;;;31.60;37.59;100985.50;4999314;28;20104;-82
2022/07/21 11:18:31;;;;;;;9.32;8.43;;;;;;;31.81;38.01;100986.03;5009210;28;20100;-83
2022/07/21 11:21:12;;;;;;;8.73;7.75;;;;;;;32.11;36.90;100986.53;5021706;28;20046;-82
2022/07/21 11:23:49;;;;;;;8.07;7.22;;;;;;;32.45;35.46;100983.78;5006595;28;20655;-83
2022/07/21 11:26:19;;;;;;;10.73;7.20;;;;;;;32.56;34.84;100977.19;5004910;28;20541;-83
2022/07/21 11:29:03;;;;;;;9.23;7.03;;;;;;;32.28;35.41;100977.38;4991978;28;20069;-81